sensor_id;sensor_type;location;lat;lon;timestamp;pressure;altitude;pressure_sealevel;temperature;humidity
45350;BME280;31086;51.702;-1.106;2022-08-21T00:02:26;100889.87;;;20.20;57.32
45350;BME280;31086;51.702;-1.106;2022-08-21T00:04:54;100884.29;;;20.57;56.79
45350;BME280;31086;51.702;-1.106;2022-08-21T00:07:22;100877.79;;;19.88;57.72
45350;BME280;31086;51.702;-1.106;2022-08-21T00:09:49;100883.35;;;20.22;57.29
45350;BME280;31086;51.702;-1.106;2022-08-21T00:12:16;100881.74;;;19.46;58.31
45350;BME280;31086;51.702;-1.106;2022-08-21T00:14:43;100877.00;;;20.06;57.57
45350;BME280;31086;51.702;-1.106;2022-08-21T00:17:11;100876.23;;;19.74;57.25
45350;BME280;31086;51.702;-1.106;2022-08-21T00:19:38;100875.94;;;19.92;57.70
45350;BME280;31086;51.702;-1.106;2022-08-21T00:22:05;100868.45;;;19.98;57.58
45350;BME280;31086;51.702;-1.106;2022-08-21T00:24:32;100867.16;;;20.18;57.32
45350;BME280;31086;51.702;-1.106;2022-08-21T00:27:00;100860.24;;;19.64;58.03
45350;BME280;31086;51.702;-1.106;2022-08-21T00:29:27;100854.33;;;19.46;58.30
45350;BME280;31086;51.702;-1.106;2022-08-21T00:31:54;100847.29;;;19.52;58.62
45350;BME280;31086;51.702;-1.106;2022-08-21T00:34:22;100843.78;;;19.66;58.69
45350;BME280;31086;51.702;-1.106;2022-08-21T00:36:50;100842.50;;;19.21;58.70
45350;BME280;31086;51.702;-1.106;2022-08-21T00:39:17;100840.64;;;19.22;59.07
45350;BME280;31086;51.702;-1.106;2022-08-21T00:41:44;100835.44;;;19.30;58.91
45350;BME280;31086;51.702;-1.106;2022-08-21T00:44:13;100834.96;;;19.42;59.14
45350;BME280;31086;51.702;-1.106;2022-08-21T00:46:42;100829.17;;;19.17;58.77
45350;BME280;31086;51.702;-1.106;2022-08-21T00:49:12;100831.43;;;19.21;59.07
45350;BME280;31086;51.702;-1.106;2022-08-21T00:51:43;100834.78;;;19.04;59.25
45350;BME280;31086;51.702;-1.106;2022-08-21T00:54:11;100837.12;;;19.46;58.64
45350;BME280;31086;51.702;-1.106;2022-08-21T00:56:39;100839.30;;;19.61;58.67
45350;BME280;31086;51.702;-1.106;2022-08-21T00:59:07;100840.83;;;19.20;58.92
45350;BME280;31086;51.702;-1.106;2022-08-21T01:01:34;100840.45;;;19.01;59.28
45350;BME280;31086;51.702;-1.106;2022-08-21T01:04:02;100843.90;;;18.79;59.55
45350;BME280;31086;51.702;-1.106;2022-08-21T01:06:29;100850.08;;;19.04;59.23
45350;BME280;31086;51.702;-1.106;2022-08-21T01:08:56;100847.52;;;19.20;59.23
45350;BME280;31086;51.702;-1.106;2022-08-21T01:11:24;100857.55;;;18.87;60.14
45350;BME280;31086;51.702;-1.106;2022-08-21T01:13:52;100853.88;;;18.28;61.62
45350;BME280;31086;51.702;-1.106;2022-08-21T01:16:21;100860.57;;;17.59;63.00
45350;BME280;31086;51.702;-1.106;2022-08-21T01:18:49;100858.20;;;18.29;61.73
45350;BME280;31086;51.702;-1.106;2022-08-21T01:21:19;100856.83;;;18.46;61.37
45350;BME280;31086;51.702;-1.106;2022-08-21T01:23:50;100856.07;;;18.47;61.56
45350;BME280;31086;51.702;-1.106;2022-08-21T01:26:22;100855.58;;;18.05;62.32
45350;BME280;31086;51.702;-1.106;2022-08-21T01:29:03;100860.79;;;18.04;62.76
45350;BME280;31086;51.702;-1.106;2022-08-21T01:31:32;100861.26;;;17.59;63.24
45350;BME280;31086;51.702;-1.106;2022-08-21T01:33:59;100867.53;;;17.47;64.37
45350;BME280;31086;51.702;-1.106;2022-08-21T01:36:27;100863.38;;;16.07;67.13
45350;BME280;31086;51.702;-1.106;2022-08-21T01:38:55;100860.41;;;17.30;65.18
45350;BME280;31086;51.702;-1.106;2022-08-21T01:41:23;100860.00;;;17.35;64.61
45350;BME280;31086;51.702;-1.106;2022-08-21T01:43:50;100858.21;;;17.53;64.40
45350;BME280;31086;51.702;-1.106;2022-08-21T01:46:17;100852.88;;;17.89;63.20
45350;BME280;31086;51.702;-1.106;2022-08-21T01:48:45;100856.66;;;17.02;65.41
45350;BME280;31086;51.702;-1.106;2022-08-21T01:51:13;100861.47;;;16.95;64.80
45350;BME280;31086;51.702;-1.106;2022-08-21T01:53:40;100860.72;;;17.32;64.54
45350;BME280;31086;51.702;-1.106;2022-08-21T01:56:11;100858.14;;;17.26;64.87
45350;BME280;31086;51.702;-1.106;2022-08-21T01:58:40;100854.41;;;17.42;63.80
45350;BME280;31086;51.702;-1.106;2022-08-21T02:01:09;100847.23;;;18.27;62.67
45350;BME280;31086;51.702;-1.106;2022-08-21T02:03:37;100851.86;;;17.70;63.08
45350;BME280;31086;51.702;-1.106;2022-08-21T02:06:06;100850.26;;;17.75;62.92
45350;BME280;31086;51.702;-1.106;2022-08-21T02:08:34;100850.15;;;17.94;62.52
45350;BME280;31086;51.702;-1.106;2022-08-21T02:11:02;100854.28;;;17.81;62.71
45350;BME280;31086;51.702;-1.106;2022-08-21T02:13:29;100854.71;;;17.58;63.07
45350;BME280;31086;51.702;-1.106;2022-08-21T02:15:56;100853.71;;;16.99;64.78
45350;BME280;31086;51.702;-1.106;2022-08-21T02:18:23;100857.40;;;17.38;64.22
45350;BME280;31086;51.702;-1.106;2022-08-21T02:20:50;100854.84;;;16.41;65.52
45350;BME280;31086;51.702;-1.106;2022-08-21T02:23:17;100855.84;;;17.03;64.97
45350;BME280;31086;51.702;-1.106;2022-08-21T02:25:45;100852.04;;;16.88;65.15
45350;BME280;31086;51.702;-1.106;2022-08-21T02:28:14;100849.12;;;17.02;64.42
45350;BME280;31086;51.702;-1.106;2022-08-21T02:30:43;100849.59;;;17.02;65.18
45350;BME280;31086;51.702;-1.106;2022-08-21T02:33:11;100843.40;;;16.79;65.11
45350;BME280;31086;51.702;-1.106;2022-08-21T02:35:40;100843.11;;;17.16;64.08
45350;BME280;31086;51.702;-1.106;2022-08-21T02:38:11;100845.29;;;16.79;65.04
45350;BME280;31086;51.702;-1.106;2022-08-21T02:40:40;100845.85;;;16.95;64.52
45350;BME280;31086;51.702;-1.106;2022-08-21T02:43:09;100852.78;;;17.00;64.36
45350;BME280;31086;51.702;-1.106;2022-08-21T02:45:37;100853.27;;;17.58;63.26
45350;BME280;31086;51.702;-1.106;2022-08-21T02:48:08;100852.00;;;16.80;65.62
45350;BME280;31086;51.702;-1.106;2022-08-21T02:50:38;100852.07;;;16.72;64.74
45350;BME280;31086;51.702;-1.106;2022-08-21T02:53:06;100850.17;;;16.61;64.82
45350;BME280;31086;51.702;-1.106;2022-08-21T02:55:37;100849.21;;;16.91;64.32
45350;BME280;31086;51.702;-1.106;2022-08-21T02:58:06;100848.06;;;17.49;63.27
45350;BME280;31086;51.702;-1.106;2022-08-21T03:00:35;100856.14;;;16.71;64.15
45350;BME280;31086;51.702;-1.106;2022-08-21T03:03:04;100857.27;;;16.12;65.15
45350;BME280;31086;51.702;-1.106;2022-08-21T03:05:33;100856.05;;;16.74;64.05
45350;BME280;31086;51.702;-1.106;2022-08-21T03:08:03;100851.27;;;16.76;64.21
45350;BME280;31086;51.702;-1.106;2022-08-21T03:10:30;100851.96;;;17.02;63.69
45350;BME280;31086;51.702;-1.106;2022-08-21T03:12:57;100849.45;;;17.54;62.79
45350;BME280;31086;51.702;-1.106;2022-08-21T03:15:25;100844.03;;;17.59;62.17
45350;BME280;31086;51.702;-1.106;2022-08-21T03:17:52;100853.11;;;17.15;62.83
45350;BME280;31086;51.702;-1.106;2022-08-21T03:20:23;100854.84;;;17.32;62.94
45350;BME280;31086;51.702;-1.106;2022-08-21T03:22:52;100854.47;;;16.95;63.14
45350;BME280;31086;51.702;-1.106;2022-08-21T03:25:20;100855.72;;;16.57;63.77
45350;BME280;31086;51.702;-1.106;2022-08-21T03:27:47;100856.14;;;16.68;64.03
45350;BME280;31086;51.702;-1.106;2022-08-21T03:30:15;100852.17;;;16.73;63.52
45350;BME280;31086;51.702;-1.106;2022-08-21T03:32:44;100851.78;;;16.53;63.82
45350;BME280;31086;51.702;-1.106;2022-08-21T03:35:11;100853.96;;;16.09;64.12
45350;BME280;31086;51.702;-1.106;2022-08-21T03:37:39;100851.73;;;16.92;63.54
45350;BME280;31086;51.702;-1.106;2022-08-21T03:40:14;100846.30;;;16.58;64.11
45350;BME280;31086;51.702;-1.106;2022-08-21T03:42:42;100845.17;;;17.13;63.05
45350;BME280;31086;51.702;-1.106;2022-08-21T03:45:10;100842.44;;;17.00;62.90
45350;BME280;31086;51.702;-1.106;2022-08-21T03:47:37;100838.66;;;17.11;63.04
45350;BME280;31086;51.702;-1.106;2022-08-21T03:50:05;100841.74;;;16.79;63.47
45350;BME280;31086;51.702;-1.106;2022-08-21T03:52:33;100833.86;;;16.88;62.99
45350;BME280;31086;51.702;-1.106;2022-08-21T03:55:00;100837.01;;;17.14;62.93
45350;BME280;31086;51.702;-1.106;2022-08-21T03:57:27;100833.41;;;16.91;63.37
45350;BME280;31086;51.702;-1.106;2022-08-21T03:59:54;100827.39;;;17.19;62.85
45350;BME280;31086;51.702;-1.106;2022-08-21T04:02:21;100824.63;;;16.59;63.09
45350;BME280;31086;51.702;-1.106;2022-08-21T04:04:48;100825.59;;;17.12;62.56
45350;BME280;31086;51.702;-1.106;2022-08-21T04:07:16;100820.53;;;17.48;61.49
45350;BME280;31086;51.702;-1.106;2022-08-21T04:09:43;100817.11;;;17.07;62.42
45350;BME280;31086;51.702;-1.106;2022-08-21T04:12:10;100820.72;;;16.47;63.03
45350;BME280;31086;51.702;-1.106;2022-08-21T04:14:38;100818.78;;;16.63;63.34
45350;BME280;31086;51.702;-1.106;2022-08-21T04:17:05;100822.80;;;17.20;62.67
45350;BME280;31086;51.702;-1.106;2022-08-21T04:19:33;100825.95;;;16.76;63.33
45350;BME280;31086;51.702;-1.106;2022-08-21T04:22:00;100828.54;;;16.77;63.30
45350;BME280;31086;51.702;-1.106;2022-08-21T04:24:27;100827.93;;;16.76;62.82
45350;BME280;31086;51.702;-1.106;2022-08-21T04:26:54;100830.27;;;17.07;62.69
45350;BME280;31086;51.702;-1.106;2022-08-21T04:29:21;100826.85;;;16.68;62.44
45350;BME280;31086;51.702;-1.106;2022-08-21T04:31:49;100819.62;;;17.19;61.96
45350;BME280;31086;51.702;-1.106;2022-08-21T04:34:16;100816.41;;;17.14;61.90
45350;BME280;31086;51.702;-1.106;2022-08-21T04:36:43;100822.77;;;16.47;63.33
45350;BME280;31086;51.702;-1.106;2022-08-21T04:39:10;100823.33;;;16.24;62.99
45350;BME280;31086;51.702;-1.106;2022-08-21T04:41:37;100822.21;;;17.11;62.14
45350;BME280;31086;51.702;-1.106;2022-08-21T04:44:05;100825.70;;;16.85;62.68
45350;BME280;31086;51.702;-1.106;2022-08-21T04:46:32;100825.04;;;16.65;63.08
45350;BME280;31086;51.702;-1.106;2022-08-21T04:49:00;100823.33;;;16.69;63.07
45350;BME280;31086;51.702;-1.106;2022-08-21T04:51:29;100830.56;;;16.80;62.84
45350;BME280;31086;51.702;-1.106;2022-08-21T04:54:00;100833.24;;;16.58;63.19
45350;BME280;31086;51.702;-1.106;2022-08-21T04:56:31;100843.40;;;16.56;63.39
45350;BME280;31086;51.702;-1.106;2022-08-21T04:59:02;100848.94;;;16.41;64.23
45350;BME280;31086;51.702;-1.106;2022-08-21T05:01:34;100856.12;;;16.50;64.66
45350;BME280;31086;51.702;-1.106;2022-08-21T05:04:04;100851.64;;;15.57;66.04
45350;BME280;31086;51.702;-1.106;2022-08-21T05:06:35;100853.09;;;16.54;64.34
45350;BME280;31086;51.702;-1.106;2022-08-21T05:09:04;100855.68;;;16.31;65.02
45350;BME280;31086;51.702;-1.106;2022-08-21T05:11:32;100860.87;;;16.51;64.94
45350;BME280;31086;51.702;-1.106;2022-08-21T05:14:00;100862.25;;;16.08;64.68
45350;BME280;31086;51.702;-1.106;2022-08-21T05:16:27;100867.94;;;16.67;64.65
45350;BME280;31086;51.702;-1.106;2022-08-21T05:18:54;100870.26;;;16.81;64.38
45350;BME280;31086;51.702;-1.106;2022-08-21T05:21:21;100867.52;;;16.52;64.59
45350;BME280;31086;51.702;-1.106;2022-08-21T05:23:49;100866.14;;;16.63;63.89
45350;BME280;31086;51.702;-1.106;2022-08-21T05:26:16;100869.77;;;16.24;64.77
45350;BME280;31086;51.702;-1.106;2022-08-21T05:28:43;100871.05;;;16.76;64.35
45350;BME280;31086;51.702;-1.106;2022-08-21T05:31:10;100876.90;;;15.96;64.81
45350;BME280;31086;51.702;-1.106;2022-08-21T05:33:37;100881.19;;;16.51;64.16
45350;BME280;31086;51.702;-1.106;2022-08-21T05:36:04;100875.10;;;16.67;63.81
45350;BME280;31086;51.702;-1.106;2022-08-21T05:38:32;100875.62;;;16.78;63.17
45350;BME280;31086;51.702;-1.106;2022-08-21T05:41:00;100873.35;;;17.05;63.11
45350;BME280;31086;51.702;-1.106;2022-08-21T05:43:27;100869.47;;;17.16;62.94
45350;BME280;31086;51.702;-1.106;2022-08-21T05:45:54;100874.48;;;17.24;62.85
45350;BME280;31086;51.702;-1.106;2022-08-21T05:48:24;100884.81;;;16.75;63.74
45350;BME280;31086;51.702;-1.106;2022-08-21T05:50:52;100880.06;;;17.02;63.41
45350;BME280;31086;51.702;-1.106;2022-08-21T05:53:21;100878.84;;;17.00;63.02
45350;BME280;31086;51.702;-1.106;2022-08-21T05:55:50;100881.00;;;16.44;64.40
45350;BME280;31086;51.702;-1.106;2022-08-21T05:58:19;100874.99;;;17.21;62.96
45350;BME280;31086;51.702;-1.106;2022-08-21T06:00:49;100867.65;;;17.23;63.04
45350;BME280;31086;51.702;-1.106;2022-08-21T06:03:20;100865.62;;;16.79;63.01
45350;BME280;31086;51.702;-1.106;2022-08-21T06:05:47;100870.89;;;17.25;63.02
45350;BME280;31086;51.702;-1.106;2022-08-21T06:08:16;100873.83;;;16.28;64.08
45350;BME280;31086;51.702;-1.106;2022-08-21T06:10:44;100871.06;;;17.53;62.40
45350;BME280;31086;51.702;-1.106;2022-08-21T06:13:12;100869.58;;;17.51;62.06
45350;BME280;31086;51.702;-1.106;2022-08-21T06:15:39;100868.43;;;18.05;61.46
45350;BME280;31086;51.702;-1.106;2022-08-21T06:18:08;100869.18;;;17.76;62.24
45350;BME280;31086;51.702;-1.106;2022-08-21T06:20:36;100866.17;;;17.67;61.98
45350;BME280;31086;51.702;-1.106;2022-08-21T06:23:04;100869.58;;;17.77;62.06
45350;BME280;31086;51.702;-1.106;2022-08-21T06:25:31;100870.28;;;17.72;62.18
45350;BME280;31086;51.702;-1.106;2022-08-21T06:28:04;100869.19;;;17.17;62.79
45350;BME280;31086;51.702;-1.106;2022-08-21T06:30:32;100866.72;;;18.03;62.05
45350;BME280;31086;51.702;-1.106;2022-08-21T06:33:00;100867.59;;;18.39;61.60
45350;BME280;31086;51.702;-1.106;2022-08-21T06:35:29;100866.42;;;17.61;62.47
45350;BME280;31086;51.702;-1.106;2022-08-21T06:37:56;100856.10;;;17.35;62.87
45350;BME280;31086;51.702;-1.106;2022-08-21T06:40:24;100856.72;;;17.54;63.15
45350;BME280;31086;51.702;-1.106;2022-08-21T06:42:51;100853.63;;;17.22;63.63
45350;BME280;31086;51.702;-1.106;2022-08-21T06:45:19;100859.02;;;16.23;65.72
45350;BME280;31086;51.702;-1.106;2022-08-21T06:47:46;100853.44;;;17.08;64.68
45350;BME280;31086;51.702;-1.106;2022-08-21T06:50:13;100853.01;;;17.36;63.68
45350;BME280;31086;51.702;-1.106;2022-08-21T06:52:40;100849.64;;;17.66;62.80
45350;BME280;31086;51.702;-1.106;2022-08-21T06:55:09;100847.76;;;18.17;62.64
45350;BME280;31086;51.702;-1.106;2022-08-21T06:57:37;100851.28;;;16.19;65.51
45350;BME280;31086;51.702;-1.106;2022-08-21T07:00:05;100850.61;;;17.05;64.79
45350;BME280;31086;51.702;-1.106;2022-08-21T07:02:33;100853.14;;;16.69;65.49
45350;BME280;31086;51.702;-1.106;2022-08-21T07:05:00;100859.05;;;16.14;66.50
45350;BME280;31086;51.702;-1.106;2022-08-21T07:07:27;100857.30;;;16.36;67.22
45350;BME280;31086;51.702;-1.106;2022-08-21T07:09:54;100863.28;;;16.56;65.85
45350;BME280;31086;51.702;-1.106;2022-08-21T07:12:21;100858.87;;;16.57;65.66
45350;BME280;31086;51.702;-1.106;2022-08-21T07:14:49;100853.88;;;17.38;63.73
45350;BME280;31086;51.702;-1.106;2022-08-21T07:17:16;100856.66;;;16.46;65.29
45350;BME280;31086;51.702;-1.106;2022-08-21T07:19:44;100854.78;;;17.74;63.95
45350;BME280;31086;51.702;-1.106;2022-08-21T07:22:12;100857.49;;;16.71;64.97
45350;BME280;31086;51.702;-1.106;2022-08-21T07:24:41;100857.27;;;17.26;64.08
45350;BME280;31086;51.702;-1.106;2022-08-21T07:27:08;100853.73;;;17.87;62.91
45350;BME280;31086;51.702;-1.106;2022-08-21T07:29:36;100856.47;;;16.78;64.98
45350;BME280;31086;51.702;-1.106;2022-08-21T07:32:03;100859.20;;;16.94;65.08
45350;BME280;31086;51.702;-1.106;2022-08-21T07:34:31;100858.77;;;16.30;66.48
45350;BME280;31086;51.702;-1.106;2022-08-21T07:36:58;100861.79;;;17.50;64.47
45350;BME280;31086;51.702;-1.106;2022-08-21T07:39:25;100858.19;;;17.11;64.16
45350;BME280;31086;51.702;-1.106;2022-08-21T07:41:53;100858.44;;;17.04;64.21
45350;BME280;31086;51.702;-1.106;2022-08-21T07:44:20;100855.31;;;17.43;64.09
45350;BME280;31086;51.702;-1.106;2022-08-21T07:46:48;100851.72;;;16.79;66.50
45350;BME280;31086;51.702;-1.106;2022-08-21T07:49:15;100842.69;;;16.48;66.22
45350;BME280;31086;51.702;-1.106;2022-08-21T07:51:42;100842.69;;;17.28;66.14
45350;BME280;31086;51.702;-1.106;2022-08-21T07:54:10;100846.49;;;16.95;65.11
45350;BME280;31086;51.702;-1.106;2022-08-21T07:56:37;100848.01;;;17.50;64.25
45350;BME280;31086;51.702;-1.106;2022-08-21T07:59:04;100856.64;;;17.21;64.50
45350;BME280;31086;51.702;-1.106;2022-08-21T08:01:31;100853.15;;;17.97;63.15
45350;BME280;31086;51.702;-1.106;2022-08-21T08:03:58;100853.82;;;17.73;63.48
45350;BME280;31086;51.702;-1.106;2022-08-21T08:06:26;100848.51;;;18.37;62.64
45350;BME280;31086;51.702;-1.106;2022-08-21T08:08:53;100845.81;;;18.86;62.07
45350;BME280;31086;51.702;-1.106;2022-08-21T08:11:20;100845.99;;;18.95;61.75
45350;BME280;31086;51.702;-1.106;2022-08-21T08:13:49;100846.11;;;18.88;61.81
45350;BME280;31086;51.702;-1.106;2022-08-21T08:16:17;100839.90;;;19.11;60.56
45350;BME280;31086;51.702;-1.106;2022-08-21T08:18:45;100835.30;;;19.77;59.71
45350;BME280;31086;51.702;-1.106;2022-08-21T08:21:15;100831.12;;;19.74;59.24
45350;BME280;31086;51.702;-1.106;2022-08-21T08:23:42;100828.65;;;20.05;58.53
45350;BME280;31086;51.702;-1.106;2022-08-21T08:26:10;100829.55;;;19.64;59.01
45350;BME280;31086;51.702;-1.106;2022-08-21T08:28:37;100829.84;;;19.62;58.89
45350;BME280;31086;51.702;-1.106;2022-08-21T08:31:05;100825.18;;;19.78;59.23
45350;BME280;31086;51.702;-1.106;2022-08-21T08:33:32;100832.61;;;20.12;59.08
45350;BME280;31086;51.702;-1.106;2022-08-21T08:35:59;100840.31;;;20.01;58.72
45350;BME280;31086;51.702;-1.106;2022-08-21T08:38:26;100847.23;;;19.68;58.58
45350;BME280;31086;51.702;-1.106;2022-08-21T08:40:58;100855.65;;;19.35;59.93
45350;BME280;31086;51.702;-1.106;2022-08-21T08:43:28;100857.45;;;19.92;58.62
45350;BME280;31086;51.702;-1.106;2022-08-21T08:45:58;100860.09;;;20.15;58.49
45350;BME280;31086;51.702;-1.106;2022-08-21T08:48:40;100857.10;;;19.61;58.57
45350;BME280;31086;51.702;-1.106;2022-08-21T08:51:15;100866.26;;;19.33;59.83
45350;BME280;31086;51.702;-1.106;2022-08-21T08:53:50;100871.90;;;19.34;60.12
45350;BME280;31086;51.702;-1.106;2022-08-21T08:56:26;100872.22;;;18.92;60.13
45350;BME280;31086;51.702;-1.106;2022-08-21T08:58:55;100872.54;;;18.69;60.52
45350;BME280;31086;51.702;-1.106;2022-08-21T09:01:24;100877.11;;;17.74;62.26
45350;BME280;31086;51.702;-1.106;2022-08-21T09:03:52;100874.80;;;18.52;61.19
45350;BME280;31086;51.702;-1.106;2022-08-21T09:06:32;100875.05;;;18.63;60.33
45350;BME280;31086;51.702;-1.106;2022-08-21T09:09:14;100875.17;;;18.75;60.58
45350;BME280;31086;51.702;-1.106;2022-08-21T09:11:50;100878.81;;;19.42;59.26
45350;BME280;31086;51.702;-1.106;2022-08-21T09:14:26;100876.51;;;19.58;58.29
45350;BME280;31086;51.702;-1.106;2022-08-21T09:17:13;100874.33;;;19.47;58.44
45350;BME280;31086;51.702;-1.106;2022-08-21T09:20:03;100879.44;;;19.96;57.77
45350;BME280;31086;51.702;-1.106;2022-08-21T09:22:39;100876.61;;;19.25;58.68
45350;BME280;31086;51.702;-1.106;2022-08-21T09:25:15;100871.71;;;18.99;58.87
45350;BME280;31086;51.702;-1.106;2022-08-21T09:27:47;100865.11;;;20.27;56.85
45350;BME280;31086;51.702;-1.106;2022-08-21T09:30:14;100863.60;;;19.32;57.30
45350;BME280;31086;51.702;-1.106;2022-08-21T09:32:42;100868.50;;;19.21;58.66
45350;BME280;31086;51.702;-1.106;2022-08-21T09:35:12;100877.70;;;18.73;59.37
45350;BME280;31086;51.702;-1.106;2022-08-21T09:37:51;100875.59;;;19.15;58.11
45350;BME280;31086;51.702;-1.106;2022-08-21T09:40:29;100871.48;;;18.79;58.65
45350;BME280;31086;51.702;-1.106;2022-08-21T09:42:59;100869.17;;;18.74;58.51
45350;BME280;31086;51.702;-1.106;2022-08-21T09:45:30;100869.38;;;18.98;58.88
45350;BME280;31086;51.702;-1.106;2022-08-21T09:48:10;100869.40;;;19.30;57.82
45350;BME280;31086;51.702;-1.106;2022-08-21T09:50:38;100865.87;;;19.05;57.91
45350;BME280;31086;51.702;-1.106;2022-08-21T09:53:13;100866.73;;;19.18;57.88
45350;BME280;31086;51.702;-1.106;2022-08-21T09:55:49;100874.98;;;19.79;56.54
45350;BME280;31086;51.702;-1.106;2022-08-21T09:58:18;100872.48;;;19.23;57.98
45350;BME280;31086;51.702;-1.106;2022-08-21T10:00:57;100869.94;;;19.47;57.75
45350;BME280;31086;51.702;-1.106;2022-08-21T10:03:25;100870.25;;;19.35;57.77
45350;BME280;31086;51.702;-1.106;2022-08-21T10:05:56;100864.38;;;18.38;59.07
45350;BME280;31086;51.702;-1.106;2022-08-21T10:08:26;100861.19;;;18.98;57.70
45350;BME280;31086;51.702;-1.106;2022-08-21T10:10:56;100870.32;;;18.93;58.18
45350;BME280;31086;51.702;-1.106;2022-08-21T10:13:34;100870.56;;;19.59;57.00
45350;BME280;31086;51.702;-1.106;2022-08-21T10:16:15;100873.25;;;18.03;59.51
45350;BME280;31086;51.702;-1.106;2022-08-21T10:18:55;100868.00;;;19.21;57.54
45350;BME280;31086;51.702;-1.106;2022-08-21T10:21:29;100866.58;;;18.39;58.85
45350;BME280;31086;51.702;-1.106;2022-08-21T10:24:09;100869.24;;;18.87;58.48
45350;BME280;31086;51.702;-1.106;2022-08-21T10:26:48;100879.41;;;18.02;59.89
45350;BME280;31086;51.702;-1.106;2022-08-21T10:29:34;100882.00;;;18.96;57.85
45350;BME280;31086;51.702;-1.106;2022-08-21T10:32:19;100872.87;;;19.23;57.10
45350;BME280;31086;51.702;-1.106;2022-08-21T10:34:59;100872.76;;;20.03;56.16
45350;BME280;31086;51.702;-1.106;2022-08-21T10:37:37;100872.91;;;19.67;56.36
45350;BME280;31086;51.702;-1.106;2022-08-21T10:40:15;100870.19;;;20.37;54.75
45350;BME280;31086;51.702;-1.106;2022-08-21T10:42:50;100870.81;;;20.57;54.89
45350;BME280;31086;51.702;-1.106;2022-08-21T10:45:32;100868.11;;;20.77;54.09
45350;BME280;31086;51.702;-1.106;2022-08-21T10:48:05;100867.43;;;20.03;55.51
45350;BME280;31086;51.702;-1.106;2022-08-21T10:50:39;100861.01;;;20.14;54.91
45350;BME280;31086;51.702;-1.106;2022-08-21T10:53:19;100860.41;;;20.28;54.44
45350;BME280;31086;51.702;-1.106;2022-08-21T10:55:55;100862.76;;;20.45;54.69
45350;BME280;31086;51.702;-1.106;2022-08-21T10:58:28;100866.01;;;20.92;53.50
45350;BME280;31086;51.702;-1.106;2022-08-21T11:01:00;100867.11;;;19.08;56.82
45350;BME280;31086;51.702;-1.106;2022-08-21T11:03:34;100871.51;;;20.29;54.56
45350;BME280;31086;51.702;-1.106;2022-08-21T11:06:11;100873.54;;;20.33;54.78
45350;BME280;31086;51.702;-1.106;2022-08-21T11:08:43;100869.54;;;20.15;54.55
45350;BME280;31086;51.702;-1.106;2022-08-21T11:11:15;100866.80;;;20.55;53.52
45350;BME280;31086;51.702;-1.106;2022-08-21T11:13:48;100873.27;;;21.31;52.78
45350;BME280;31086;51.702;-1.106;2022-08-21T11:16:21;100868.35;;;20.86;53.04
45350;BME280;31086;51.702;-1.106;2022-08-21T11:18:53;100868.18;;;20.95;53.47
45350;BME280;31086;51.702;-1.106;2022-08-21T11:21:33;100863.13;;;21.05;52.87
45350;BME280;31086;51.702;-1.106;2022-08-21T11:24:17;100860.01;;;21.15;52.28
45350;BME280;31086;51.702;-1.106;2022-08-21T11:26:54;100859.75;;;21.21;52.33
45350;BME280;31086;51.702;-1.106;2022-08-21T11:29:27;100856.17;;;21.24;52.89
45350;BME280;31086;51.702;-1.106;2022-08-21T11:32:14;100856.69;;;21.40;51.71
45350;BME280;31086;51.702;-1.106;2022-08-21T11:34:56;100855.84;;;21.35;51.70
45350;BME280;31086;51.702;-1.106;2022-08-21T11:37:42;100862.96;;;21.93;50.83
45350;BME280;31086;51.702;-1.106;2022-08-21T11:40:22;100865.54;;;21.08;51.38
45350;BME280;31086;51.702;-1.106;2022-08-21T11:42:57;100868.39;;;21.55;51.83
45350;BME280;31086;51.702;-1.106;2022-08-21T11:45:35;100871.16;;;21.66;50.93
45350;BME280;31086;51.702;-1.106;2022-08-21T11:48:11;100866.43;;;22.35;49.87
45350;BME280;31086;51.702;-1.106;2022-08-21T11:50:44;100861.29;;;22.70;48.98
45350;BME280;31086;51.702;-1.106;2022-08-21T11:53:15;100856.70;;;20.98;49.93
45350;BME280;31086;51.702;-1.106;2022-08-21T11:55:48;100861.21;;;21.24;50.66
45350;BME280;31086;51.702;-1.106;2022-08-21T11:58:20;100855.59;;;20.87;50.74
45350;BME280;31086;51.702;-1.106;2022-08-21T12:00:51;100849.27;;;21.86;49.93
45350;BME280;31086;51.702;-1.106;2022-08-21T12:03:27;100847.44;;;22.19;49.72
45350;BME280;31086;51.702;-1.106;2022-08-21T12:05:59;100849.93;;;21.40;50.72
45350;BME280;31086;51.702;-1.106;2022-08-21T12:08:29;100842.02;;;21.78;50.21
45350;BME280;31086;51.702;-1.106;2022-08-21T12:11:04;100844.14;;;22.35;49.98
45350;BME280;31086;51.702;-1.106;2022-08-21T12:13:34;100848.73;;;22.19;50.12
45350;BME280;31086;51.702;-1.106;2022-08-21T12:16:07;100849.67;;;21.86;50.28
45350;BME280;31086;51.702;-1.106;2022-08-21T12:18:34;100842.67;;;22.92;49.39
45350;BME280;31086;51.702;-1.106;2022-08-21T12:21:16;100848.07;;;22.47;49.24
45350;BME280;31086;51.702;-1.106;2022-08-21T12:23:47;100841.90;;;22.45;49.08
45350;BME280;31086;51.702;-1.106;2022-08-21T12:26:22;100844.14;;;22.71;49.13
45350;BME280;31086;51.702;-1.106;2022-08-21T12:28:50;100839.64;;;22.57;49.17
45350;BME280;31086;51.702;-1.106;2022-08-21T12:31:20;100841.72;;;21.60;49.94
45350;BME280;31086;51.702;-1.106;2022-08-21T12:33:54;100834.51;;;22.13;49.74
45350;BME280;31086;51.702;-1.106;2022-08-21T12:36:24;100831.94;;;22.63;48.65
45350;BME280;31086;51.702;-1.106;2022-08-21T12:38:57;100826.94;;;22.15;48.77
45350;BME280;31086;51.702;-1.106;2022-08-21T12:41:28;100837.15;;;22.23;49.24
45350;BME280;31086;51.702;-1.106;2022-08-21T12:44:00;100825.30;;;22.85;48.45
45350;BME280;31086;51.702;-1.106;2022-08-21T12:46:34;100817.80;;;23.37;47.36
45350;BME280;31086;51.702;-1.106;2022-08-21T12:49:11;100817.11;;;23.28;47.63
45350;BME280;31086;51.702;-1.106;2022-08-21T12:51:50;100819.01;;;24.34;46.32
45350;BME280;31086;51.702;-1.106;2022-08-21T12:54:25;100820.82;;;23.68;46.87
45350;BME280;31086;51.702;-1.106;2022-08-21T12:56:57;100813.96;;;25.14;45.16